sensor_id;sensor_type;location;lat;lon;timestamp;P1;durP1;ratioP1;P2;durP2;ratioP2
25721;SDS011;13578;53.450;15.496;2023-02-15T00:02:56;43.67;;;21.10;;
25721;SDS011;13578;53.450;15.496;2023-02-15T00:05:57;47.85;;;23.67;;
25721;SDS011;13578;53.450;15.496;2023-02-15T00:08:58;57.45;;;24.58;;
25721;SDS011;13578;53.450;15.496;2023-02-15T00:11:59;58.72;;;24.45;;
25721;SDS011;13578;53.450;15.496;2023-02-15T00:14:59;56.60;;;24.15;;
25721;SDS011;13578;53.450;15.496;2023-02-15T00:18:00;43.42;;;22.05;;
25721;SDS011;13578;53.450;15.496;2023-02-15T00:21:07;47.22;;;22.25;;
25721;SDS011;13578;53.450;15.496;2023-02-15T00:24:10;41.85;;;20.92;;
25721;SDS011;13578;53.450;15.496;2023-02-15T00:27:12;41.17;;;21.95;;
25721;SDS011;13578;53.450;15.496;2023-02-15T00:30:12;41.83;;;20.23;;
25721;SDS011;13578;53.450;15.496;2023-02-15T00:33:13;45.05;;;20.52;;
25721;SDS011;13578;53.450;15.496;2023-02-15T00:36:14;49.13;;;22.17;;
25721;SDS011;13578;53.450;15.496;2023-02-15T00:39:15;38.58;;;20.50;;
25721;SDS011;13578;53.450;15.496;2023-02-15T00:42:16;42.65;;;21.92;;
25721;SDS011;13578;53.450;15.496;2023-02-15T00:45:17;43.67;;;21.92;;
25721;SDS011;13578;53.450;15.496;2023-02-15T00:48:18;52.72;;;21.80;;
25721;SDS011;13578;53.450;15.496;2023-02-15T00:51:19;48.40;;;22.00;;
25721;SDS011;13578;53.450;15.496;2023-02-15T00:54:20;40.83;;;21.05;;
25721;SDS011;13578;53.450;15.496;2023-02-15T00:57:21;45.67;;;22.55;;
25721;SDS011;13578;53.450;15.496;2023-02-15T01:00:21;52.80;;;23.67;;
25721;SDS011;13578;53.450;15.496;2023-02-15T01:03:22;39.03;;;21.50;;
25721;SDS011;13578;53.450;15.496;2023-02-15T01:06:22;44.35;;;22.20;;
25721;SDS011;13578;53.450;15.496;2023-02-15T01:09:23;44.22;;;22.63;;
25721;SDS011;13578;53.450;15.496;2023-02-15T01:12:24;40.97;;;21.00;;
25721;SDS011;13578;53.450;15.496;2023-02-15T01:15:24;41.20;;;20.80;;
25721;SDS011;13578;53.450;15.496;2023-02-15T01:18:25;44.50;;;19.67;;
25721;SDS011;13578;53.450;15.496;2023-02-15T01:21:26;47.30;;;20.33;;
25721;SDS011;13578;53.450;15.496;2023-02-15T01:24:27;40.53;;;20.92;;
25721;SDS011;13578;53.450;15.496;2023-02-15T01:27:27;43.42;;;20.65;;
25721;SDS011;13578;53.450;15.496;2023-02-15T01:30:30;41.78;;;19.13;;
25721;SDS011;13578;53.450;15.496;2023-02-15T01:33:31;37.92;;;20.65;;
25721;SDS011;13578;53.450;15.496;2023-02-15T01:36:33;36.53;;;18.92;;
25721;SDS011;13578;53.450;15.496;2023-02-15T01:39:34;43.33;;;19.65;;
25721;SDS011;13578;53.450;15.496;2023-02-15T01:42:34;53.92;;;22.35;;
25721;SDS011;13578;53.450;15.496;2023-02-15T01:45:38;40.70;;;20.58;;
25721;SDS011;13578;53.450;15.496;2023-02-15T01:48:41;38.05;;;21.10;;
25721;SDS011;13578;53.450;15.496;2023-02-15T01:51:47;38.35;;;20.48;;
25721;SDS011;13578;53.450;15.496;2023-02-15T01:57:53;39.38;;;20.33;;
25721;SDS011;13578;53.450;15.496;2023-02-15T02:00:55;39.25;;;20.02;;
25721;SDS011;13578;53.450;15.496;2023-02-15T02:04:01;37.22;;;20.67;;
25721;SDS011;13578;53.450;15.496;2023-02-15T02:07:04;45.53;;;21.80;;
25721;SDS011;13578;53.450;15.496;2023-02-15T02:10:07;36.20;;;20.38;;
25721;SDS011;13578;53.450;15.496;2023-02-15T02:13:10;43.83;;;21.25;;
25721;SDS011;13578;53.450;15.496;2023-02-15T02:16:16;43.90;;;21.30;;
25721;SDS011;13578;53.450;15.496;2023-02-15T02:37:19;37.92;;;20.98;;
25721;SDS011;13578;53.450;15.496;2023-02-15T02:47:49;40.67;;;19.23;;
25721;SDS011;13578;53.450;15.496;2023-02-15T02:50:53;34.53;;;20.45;;
25721;SDS011;13578;53.450;15.496;2023-02-15T02:53:55;32.45;;;20.10;;
25721;SDS011;13578;53.450;15.496;2023-02-15T02:56:59;30.45;;;19.25;;
25721;SDS011;13578;53.450;15.496;2023-02-15T03:00:03;32.55;;;19.08;;
25721;SDS011;13578;53.450;15.496;2023-02-15T03:03:10;39.17;;;19.57;;
25721;SDS011;13578;53.450;15.496;2023-02-15T03:06:40;35.17;;;18.17;;
25721;SDS011;13578;53.450;15.496;2023-02-15T03:09:48;41.58;;;18.88;;
25721;SDS011;13578;53.450;15.496;2023-02-15T03:12:51;32.30;;;18.55;;
25721;SDS011;13578;53.450;15.496;2023-02-15T03:15:53;39.00;;;21.05;;
25721;SDS011;13578;53.450;15.496;2023-02-15T03:19:24;39.60;;;19.83;;
25721;SDS011;13578;53.450;15.496;2023-02-15T03:23:06;38.75;;;20.05;;
25721;SDS011;13578;53.450;15.496;2023-02-15T03:26:05;35.65;;;20.65;;
25721;SDS011;13578;53.450;15.496;2023-02-15T03:29:07;36.95;;;19.25;;
25721;SDS011;13578;53.450;15.496;2023-02-15T03:32:10;32.20;;;21.27;;
25721;SDS011;13578;53.450;15.496;2023-02-15T03:35:12;42.40;;;21.48;;
25721;SDS011;13578;53.450;15.496;2023-02-15T03:38:13;32.50;;;19.77;;
25721;SDS011;13578;53.450;15.496;2023-02-15T03:41:20;32.88;;;19.27;;
25721;SDS011;13578;53.450;15.496;2023-02-15T03:44:29;35.63;;;19.50;;
25721;SDS011;13578;53.450;15.496;2023-02-15T03:50:35;37.08;;;18.40;;
25721;SDS011;13578;53.450;15.496;2023-02-15T03:53:56;30.60;;;17.52;;
25721;SDS011;13578;53.450;15.496;2023-02-15T03:56:59;47.35;;;20.80;;
25721;SDS011;13578;53.450;15.496;2023-02-15T04:00:22;35.28;;;18.13;;
25721;SDS011;13578;53.450;15.496;2023-02-15T04:03:49;31.23;;;18.83;;
25721;SDS011;13578;53.450;15.496;2023-02-15T04:06:56;34.88;;;18.55;;
25721;SDS011;13578;53.450;15.496;2023-02-15T04:09:57;37.28;;;19.05;;
25721;SDS011;13578;53.450;15.496;2023-02-15T04:13:16;35.53;;;19.33;;
25721;SDS011;13578;53.450;15.496;2023-02-15T04:16:17;36.95;;;20.42;;
25721;SDS011;13578;53.450;15.496;2023-02-15T04:19:17;34.75;;;20.83;;
25721;SDS011;13578;53.450;15.496;2023-02-15T04:22:38;32.55;;;18.92;;
25721;SDS011;13578;53.450;15.496;2023-02-15T04:25:58;37.13;;;20.08;;
25721;SDS011;13578;53.450;15.496;2023-02-15T04:28:59;36.65;;;19.73;;
25721;SDS011;13578;53.450;15.496;2023-02-15T04:32:00;30.38;;;18.13;;
25721;SDS011;13578;53.450;15.496;2023-02-15T04:35:02;39.50;;;20.02;;
25721;SDS011;13578;53.450;15.496;2023-02-15T04:38:03;43.40;;;20.08;;
25721;SDS011;13578;53.450;15.496;2023-02-15T04:41:04;38.72;;;19.25;;
25721;SDS011;13578;53.450;15.496;2023-02-15T04:44:04;36.53;;;18.77;;
25721;SDS011;13578;53.450;15.496;2023-02-15T04:47:05;38.95;;;19.48;;
25721;SDS011;13578;53.450;15.496;2023-02-15T04:50:06;39.42;;;19.13;;
25721;SDS011;13578;53.450;15.496;2023-02-15T04:53:07;36.72;;;19.10;;
25721;SDS011;13578;53.450;15.496;2023-02-15T04:56:08;34.55;;;19.58;;
25721;SDS011;13578;53.450;15.496;2023-02-15T04:59:10;35.65;;;20.38;;
25721;SDS011;13578;53.450;15.496;2023-02-15T05:02:11;36.53;;;20.55;;
25721;SDS011;13578;53.450;15.496;2023-02-15T05:05:11;37.83;;;20.10;;
25721;SDS011;13578;53.450;15.496;2023-02-15T05:08:13;34.97;;;19.33;;
25721;SDS011;13578;53.450;15.496;2023-02-15T05:11:14;36.53;;;19.70;;
25721;SDS011;13578;53.450;15.496;2023-02-15T05:14:14;36.65;;;20.75;;
25721;SDS011;13578;53.450;15.496;2023-02-15T05:17:15;34.95;;;20.70;;
25721;SDS011;13578;53.450;15.496;2023-02-15T05:20:15;39.03;;;21.20;;
25721;SDS011;13578;53.450;15.496;2023-02-15T05:23:16;39.78;;;21.17;;
25721;SDS011;13578;53.450;15.496;2023-02-15T05:26:19;42.78;;;20.98;;
25721;SDS011;13578;53.450;15.496;2023-02-15T05:29:39;36.50;;;19.67;;
25721;SDS011;13578;53.450;15.496;2023-02-15T05:32:40;41.83;;;20.50;;
25721;SDS011;13578;53.450;15.496;2023-02-15T05:35:41;42.60;;;21.75;;
25721;SDS011;13578;53.450;15.496;2023-02-15T05:38:42;48.45;;;23.17;;
25721;SDS011;13578;53.450;15.496;2023-02-15T05:41:42;48.90;;;25.90;;
25721;SDS011;13578;53.450;15.496;2023-02-15T05:44:43;46.35;;;24.15;;
25721;SDS011;13578;53.450;15.496;2023-02-15T05:47:44;38.65;;;22.17;;
25721;SDS011;13578;53.450;15.496;2023-02-15T05:50:44;41.10;;;22.30;;
25721;SDS011;13578;53.450;15.496;2023-02-15T05:53:45;40.72;;;21.10;;
25721;SDS011;13578;53.450;15.496;2023-02-15T05:56:46;39.00;;;21.80;;
25721;SDS011;13578;53.450;15.496;2023-02-15T05:59:46;42.75;;;22.00;;
25721;SDS011;13578;53.450;15.496;2023-02-15T06:02:47;40.05;;;21.05;;
25721;SDS011;13578;53.450;15.496;2023-02-15T06:05:48;33.30;;;18.83;;
25721;SDS011;13578;53.450;15.496;2023-02-15T06:08:49;42.90;;;21.92;;
25721;SDS011;13578;53.450;15.496;2023-02-15T06:11:50;44.20;;;20.92;;
25721;SDS011;13578;53.450;15.496;2023-02-15T06:14:50;34.60;;;20.40;;
25721;SDS011;13578;53.450;15.496;2023-02-15T06:17:51;34.08;;;20.58;;
25721;SDS011;13578;53.450;15.496;2023-02-15T06:20:51;36.25;;;19.83;;
25721;SDS011;13578;53.450;15.496;2023-02-15T06:23:52;36.70;;;22.70;;
25721;SDS011;13578;53.450;15.496;2023-02-15T06:26:53;38.80;;;21.75;;
25721;SDS011;13578;53.450;15.496;2023-02-15T06:29:53;45.20;;;23.85;;
25721;SDS011;13578;53.450;15.496;2023-02-15T06:32:54;47.33;;;22.02;;
25721;SDS011;13578;53.450;15.496;2023-02-15T06:35:55;38.38;;;21.42;;
25721;SDS011;13578;53.450;15.496;2023-02-15T06:38:55;42.83;;;20.95;;
25721;SDS011;13578;53.450;15.496;2023-02-15T06:41:57;35.97;;;21.05;;
25721;SDS011;13578;53.450;15.496;2023-02-15T06:44:57;43.22;;;21.42;;
25721;SDS011;13578;53.450;15.496;2023-02-15T06:48:00;42.65;;;22.42;;
25721;SDS011;13578;53.450;15.496;2023-02-15T06:51:00;40.10;;;23.10;;
25721;SDS011;13578;53.450;15.496;2023-02-15T06:54:01;40.22;;;20.65;;
25721;SDS011;13578;53.450;15.496;2023-02-15T06:57:02;44.30;;;21.73;;
25721;SDS011;13578;53.450;15.496;2023-02-15T07:00:03;49.70;;;22.85;;
25721;SDS011;13578;53.450;15.496;2023-02-15T07:03:04;50.30;;;22.33;;
25721;SDS011;13578;53.450;15.496;2023-02-15T07:06:05;37.75;;;22.13;;
25721;SDS011;13578;53.450;15.496;2023-02-15T07:09:08;41.42;;;21.75;;
25721;SDS011;13578;53.450;15.496;2023-02-15T07:12:09;47.75;;;23.92;;
25721;SDS011;13578;53.450;15.496;2023-02-15T07:15:28;46.30;;;23.88;;
25721;SDS011;13578;53.450;15.496;2023-02-15T07:18:29;43.13;;;22.98;;
25721;SDS011;13578;53.450;15.496;2023-02-15T07:21:30;43.08;;;23.73;;
25721;SDS011;13578;53.450;15.496;2023-02-15T07:24:31;44.88;;;23.52;;
25721;SDS011;13578;53.450;15.496;2023-02-15T07:27:31;44.85;;;23.17;;
25721;SDS011;13578;53.450;15.496;2023-02-15T07:30:32;51.72;;;24.73;;
25721;SDS011;13578;53.450;15.496;2023-02-15T07:33:33;50.45;;;22.05;;
25721;SDS011;13578;53.450;15.496;2023-02-15T07:36:34;45.50;;;23.60;;
25721;SDS011;13578;53.450;15.496;2023-02-15T07:39:35;48.55;;;22.65;;
25721;SDS011;13578;53.450;15.496;2023-02-15T07:42:35;48.90;;;23.63;;
25721;SDS011;13578;53.450;15.496;2023-02-15T07:45:36;54.10;;;25.48;;
25721;SDS011;13578;53.450;15.496;2023-02-15T07:48:38;44.97;;;24.20;;
25721;SDS011;13578;53.450;15.496;2023-02-15T07:51:39;50.20;;;23.42;;
25721;SDS011;13578;53.450;15.496;2023-02-15T07:54:41;51.38;;;23.45;;
25721;SDS011;13578;53.450;15.496;2023-02-15T07:57:42;52.38;;;25.80;;
25721;SDS011;13578;53.450;15.496;2023-02-15T08:00:44;47.05;;;24.15;;
25721;SDS011;13578;53.450;15.496;2023-02-15T08:03:57;46.17;;;23.08;;
25721;SDS011;13578;53.450;15.496;2023-02-15T08:06:58;44.47;;;23.38;;
25721;SDS011;13578;53.450;15.496;2023-02-15T08:09:59;52.65;;;26.00;;
25721;SDS011;13578;53.450;15.496;2023-02-15T08:12:59;50.72;;;23.88;;
25721;SDS011;13578;53.450;15.496;2023-02-15T08:16:00;53.13;;;24.90;;
25721;SDS011;13578;53.450;15.496;2023-02-15T08:19:03;53.92;;;25.00;;
25721;SDS011;13578;53.450;15.496;2023-02-15T08:22:11;56.10;;;25.92;;
25721;SDS011;13578;53.450;15.496;2023-02-15T08:25:14;52.03;;;25.77;;
25721;SDS011;13578;53.450;15.496;2023-02-15T08:28:14;53.63;;;24.88;;
25721;SDS011;13578;53.450;15.496;2023-02-15T08:31:15;54.75;;;27.75;;
25721;SDS011;13578;53.450;15.496;2023-02-15T08:34:17;55.03;;;26.52;;
25721;SDS011;13578;53.450;15.496;2023-02-15T08:37:18;56.88;;;27.08;;
25721;SDS011;13578;53.450;15.496;2023-02-15T08:40:19;53.58;;;26.92;;
25721;SDS011;13578;53.450;15.496;2023-02-15T08:43:19;51.33;;;25.52;;
25721;SDS011;13578;53.450;15.496;2023-02-15T08:46:21;55.45;;;27.40;;
25721;SDS011;13578;53.450;15.496;2023-02-15T08:49:22;51.80;;;26.00;;
25721;SDS011;13578;53.450;15.496;2023-02-15T08:52:24;56.95;;;26.42;;
25721;SDS011;13578;53.450;15.496;2023-02-15T08:55:24;53.70;;;25.67;;
25721;SDS011;13578;53.450;15.496;2023-02-15T08:58:25;51.65;;;24.83;;
25721;SDS011;13578;53.450;15.496;2023-02-15T09:01:27;50.40;;;24.58;;
25721;SDS011;13578;53.450;15.496;2023-02-15T09:04:29;58.00;;;27.08;;
25721;SDS011;13578;53.450;15.496;2023-02-15T09:07:29;49.80;;;24.00;;
25721;SDS011;13578;53.450;15.496;2023-02-15T09:10:30;50.83;;;24.85;;
25721;SDS011;13578;53.450;15.496;2023-02-15T09:13:31;59.25;;;25.52;;
25721;SDS011;13578;53.450;15.496;2023-02-15T09:16:32;52.40;;;25.83;;
25721;SDS011;13578;53.450;15.496;2023-02-15T09:19:34;46.45;;;24.63;;
25721;SDS011;13578;53.450;15.496;2023-02-15T09:22:34;54.75;;;25.60;;
25721;SDS011;13578;53.450;15.496;2023-02-15T09:25:35;51.92;;;24.80;;
25721;SDS011;13578;53.450;15.496;2023-02-15T09:28:35;55.10;;;25.38;;
25721;SDS011;13578;53.450;15.496;2023-02-15T09:31:41;51.38;;;26.02;;
25721;SDS011;13578;53.450;15.496;2023-02-15T09:34:47;56.70;;;25.83;;
25721;SDS011;13578;53.450;15.496;2023-02-15T09:37:48;49.95;;;25.25;;
25721;SDS011;13578;53.450;15.496;2023-02-15T09:54:46;58.97;;;26.90;;
25721;SDS011;13578;53.450;15.496;2023-02-15T09:57:34;57.42;;;25.15;;
25721;SDS011;13578;53.450;15.496;2023-02-15T10:11:21;61.13;;;26.33;;
25721;SDS011;13578;53.450;15.496;2023-02-15T10:21:24;53.33;;;26.08;;
25721;SDS011;13578;53.450;15.496;2023-02-15T10:27:49;62.95;;;25.77;;
25721;SDS011;13578;53.450;15.496;2023-02-15T10:30:51;53.88;;;26.13;;
25721;SDS011;13578;53.450;15.496;2023-02-15T10:34:01;49.28;;;25.58;;
25721;SDS011;13578;53.450;15.496;2023-02-15T10:59:54;51.70;;;25.50;;
25721;SDS011;13578;53.450;15.496;2023-02-15T11:03:08;55.03;;;26.05;;
25721;SDS011;13578;53.450;15.496;2023-02-15T11:06:15;56.55;;;26.17;;
25721;SDS011;13578;53.450;15.496;2023-02-15T11:09:20;60.83;;;26.50;;
25721;SDS011;13578;53.450;15.496;2023-02-15T11:12:24;58.67;;;26.30;;
25721;SDS011;13578;53.450;15.496;2023-02-15T11:15:30;60.20;;;26.67;;
25721;SDS011;13578;53.450;15.496;2023-02-15T11:18:38;57.88;;;25.73;;
25721;SDS011;13578;53.450;15.496;2023-02-15T11:21:43;56.42;;;27.33;;
25721;SDS011;13578;53.450;15.496;2023-02-15T11:24:49;58.83;;;27.10;;
25721;SDS011;13578;53.450;15.496;2023-02-15T11:27:52;59.20;;;25.92;;
25721;SDS011;13578;53.450;15.496;2023-02-15T11:30:55;54.90;;;25.63;;
25721;SDS011;13578;53.450;15.496;2023-02-15T11:33:59;55.90;;;25.52;;
25721;SDS011;13578;53.450;15.496;2023-02-15T11:37:12;46.08;;;22.77;;
25721;SDS011;13578;53.450;15.496;2023-02-15T11:40:28;54.28;;;26.20;;
25721;SDS011;13578;53.450;15.496;2023-02-15T11:43:42;55.65;;;26.05;;
25721;SDS011;13578;53.450;15.496;2023-02-15T11:46:49;48.65;;;23.40;;
25721;SDS011;13578;53.450;15.496;2023-02-15T11:49:50;52.95;;;24.25;;
25721;SDS011;13578;53.450;15.496;2023-02-15T11:52:51;48.22;;;22.80;;
25721;SDS011;13578;53.450;15.496;2023-02-15T11:55:55;47.67;;;23.20;;
25721;SDS011;13578;53.450;15.496;2023-02-15T11:59:00;51.40;;;22.60;;
25721;SDS011;13578;53.450;15.496;2023-02-15T12:02:11;52.70;;;23.38;;
25721;SDS011;13578;53.450;15.496;2023-02-15T12:05:19;52.50;;;24.38;;
25721;SDS011;13578;53.450;15.496;2023-02-15T12:08:23;47.58;;;22.67;;
25721;SDS011;13578;53.450;15.496;2023-02-15T12:11:38;51.95;;;22.55;;
25721;SDS011;13578;53.450;15.496;2023-02-15T12:14:47;56.08;;;24.15;;
25721;SDS011;13578;53.450;15.496;2023-02-15T12:17:50;55.35;;;25.20;;
25721;SDS011;13578;53.450;15.496;2023-02-15T12:20:53;48.13;;;23.08;;
25721;SDS011;13578;53.450;15.496;2023-02-15T12:24:17;50.40;;;23.25;;
25721;SDS011;13578;53.450;15.496;2023-02-15T12:27:32;44.55;;;23.42;;
25721;SDS011;13578;53.450;15.496;2023-02-15T12:30:35;44.72;;;22.13;;
25721;SDS011;13578;53.450;15.496;2023-02-15T12:33:41;47.67;;;22.80;;
25721;SDS011;13578;53.450;15.496;2023-02-15T12:36:46;51.95;;;25.60;;
25721;SDS011;13578;53.450;15.496;2023-02-15T12:39:59;61.25;;;27.73;;
25721;SDS011;13578;53.450;15.496;2023-02-15T12:43:01;59.63;;;28.50;;
25721;SDS011;13578;53.450;15.496;2023-02-15T12:46:19;51.70;;;23.33;;
25721;SDS011;13578;53.450;15.496;2023-02-15T12:49:26;55.70;;;21.02;;
25721;SDS011;13578;53.450;15.496;2023-02-15T12:52:30;52.20;;;22.05;;
25721;SDS011;13578;53.450;15.496;2023-02-15T12:55:31;46.28;;;21.10;;
25721;SDS011;13578;53.450;15.496;2023-02-15T12:58:32;47.75;;;21.83;;
25721;SDS011;13578;53.450;15.496;2023-02-15T13:01:34;50.95;;;23.50;;
25721;SDS011;13578;53.450;15.496;2023-02-15T13:04:36;53.63;;;22.83;;
25721;SDS011;13578;53.450;15.496;2023-02-15T13:07:37;48.15;;;22.98;;
25721;SDS011;13578;53.450;15.496;2023-02-15T13:10:42;41.70;;;21.25;;
25721;SDS011;13578;53.450;15.496;2023-02-15T13:13:57;51.53;;;22.35;;
25721;SDS011;13578;53.450;15.496;2023-02-15T13:17:01;49.83;;;23.65;;
25721;SDS011;13578;53.450;15.496;2023-02-15T13:20:05;52.85;;;23.23;;
25721;SDS011;13578;53.450;15.496;2023-02-15T13:23:26;47.63;;;22.40;;
25721;SDS011;13578;53.450;15.496;2023-02-15T13:26:29;46.55;;;23.45;;
25721;SDS011;13578;53.450;15.496;2023-02-15T13:29:32;42.95;;;20.95;;
25721;SDS011;13578;53.450;15.496;2023-02-15T13:32:37;45.55;;;21.20;;
25721;SDS011;13578;53.450;15.496;2023-02-15T13:35:51;53.78;;;23.50;;
25721;SDS011;13578;53.450;15.496;2023-02-15T13:52:05;46.25;;;22.85;;
25721;SDS011;13578;53.450;15.496;2023-02-15T14:01:56;50.40;;;23.92;;
25721;SDS011;13578;53.450;15.496;2023-02-15T14:15:35;51.30;;;23.52;;
25721;SDS011;13578;53.450;15.496;2023-02-15T14:18:57;50.95;;;23.98;;
25721;SDS011;13578;53.450;15.496;2023-02-15T14:31:48;55.78;;;25.05;;
25721;SDS011;13578;53.450;15.496;2023-02-15T14:34:56;48.80;;;23.30;;
25721;SDS011;13578;53.450;15.496;2023-02-15T14:41:29;56.15;;;25.42;;
25721;SDS011;13578;53.450;15.496;2023-02-15T14:44:37;48.25;;;22.88;;
25721;SDS011;13578;53.450;15.496;2023-02-15T14:47:44;50.05;;;22.58;;
25721;SDS011;13578;53.450;15.496;2023-02-15T14:51:03;49.92;;;22.92;;
25721;SDS011;13578;53.450;15.496;2023-02-15T14:54:05;56.90;;;24.58;;
25721;SDS011;13578;53.450;15.496;2023-02-15T15:03:36;56.30;;;25.13;;
25721;SDS011;13578;53.450;15.496;2023-02-15T15:06:56;55.67;;;22.88;;
25721;SDS011;13578;53.450;15.496;2023-02-15T15:22:46;51.33;;;23.92;;
25721;SDS011;13578;53.450;15.496;2023-02-15T15:25:48;55.22;;;24.92;;
25721;SDS011;13578;53.450;15.496;2023-02-15T15:31:51;53.28;;;23.30;;
25721;SDS011;13578;53.450;15.496;2023-02-15T15:35:03;50.40;;;24.23;;
25721;SDS011;13578;53.450;15.496;2023-02-15T15:38:27;52.10;;;23.80;;
25721;SDS011;13578;53.450;15.496;2023-02-15T15:48:35;53.75;;;24.55;;
25721;SDS011;13578;53.450;15.496;2023-02-15T15:51:39;45.67;;;22.38;;
25721;SDS011;13578;53.450;15.496;2023-02-15T15:54:41;52.45;;;22.33;;
25721;SDS011;13578;53.450;15.496;2023-02-15T15:57:43;43.47;;;22.02;;
25721;SDS011;13578;53.450;15.496;2023-02-15T16:00:54;53.53;;;23.17;;
25721;SDS011;13578;53.450;15.496;2023-02-15T16:03:59;46.85;;;22.13;;
25721;SDS011;13578;53.450;15.496;2023-02-15T16:10:23;56.03;;;23.42;;
25721;SDS011;13578;53.450;15.496;2023-02-15T16:13:26;48.25;;;22.80;;
25721;SDS011;13578;53.450;15.496;2023-02-15T16:16:27;50.15;;;22.25;;
25721;SDS011;13578;53.450;15.496;2023-02-15T16:19:30;46.50;;;22.55;;
25721;SDS011;13578;53.450;15.496;2023-02-15T16:22:34;52.58;;;22.58;;
25721;SDS011;13578;53.450;15.496;2023-02-15T16:25:39;48.25;;;21.65;;
25721;SDS011;13578;53.450;15.496;2023-02-15T16:28:53;51.80;;;23.55;;
25721;SDS011;13578;53.450;15.496;2023-02-15T16:31:58;48.33;;;22.40;;
25721;SDS011;13578;53.450;15.496;2023-02-15T16:35:12;49.30;;;23.27;;
25721;SDS011;13578;53.450;15.496;2023-02-15T16:38:14;45.20;;;22.90;;
25721;SDS011;13578;53.450;15.496;2023-02-15T16:41:16;45.50;;;21.30;;
25721;SDS011;13578;53.450;15.496;2023-02-15T16:44:22;47.90;;;21.75;;
25721;SDS011;13578;53.450;15.496;2023-02-15T16:47:27;46.70;;;22.38;;
25721;SDS011;13578;53.450;15.496;2023-02-15T16:50:32;49.67;;;22.02;;
25721;SDS011;13578;53.450;15.496;2023-02-15T16:53:34;45.85;;;21.27;;
25721;SDS011;13578;53.450;15.496;2023-02-15T16:56:37;47.35;;;21.77;;
25721;SDS011;13578;53.450;15.496;2023-02-15T16:59:39;47.30;;;21.98;;
25721;SDS011;13578;53.450;15.496;2023-02-15T17:02:57;48.58;;;22.90;;
25721;SDS011;13578;53.450;15.496;2023-02-15T17:06:02;46.78;;;22.15;;
25721;SDS011;13578;53.450;15.496;2023-02-15T17:09:04;50.40;;;22.85;;
25721;SDS011;13578;53.450;15.496;2023-02-15T17:12:08;45.67;;;21.98;;
25721;SDS011;13578;53.450;15.496;2023-02-15T17:18:44;54.80;;;23.63;;
25721;SDS011;13578;53.450;15.496;2023-02-15T17:21:48;47.55;;;20.75;;
25721;SDS011;13578;53.450;15.496;2023-02-15T17:24:57;50.67;;;21.63;;
25721;SDS011;13578;53.450;15.496;2023-02-15T17:27:59;45.72;;;21.83;;
25721;SDS011;13578;53.450;15.496;2023-02-15T17:31:00;50.55;;;21.08;;
25721;SDS011;13578;53.450;15.496;2023-02-15T17:34:09;48.85;;;20.63;;
25721;SDS011;13578;53.450;15.496;2023-02-15T17:38:02;46.92;;;21.17;;
25721;SDS011;13578;53.450;15.496;2023-02-15T17:41:06;44.53;;;20.80;;
25721;SDS011;13578;53.450;15.496;2023-02-15T17:44:07;43.80;;;20.75;;
25721;SDS011;13578;53.450;15.496;2023-02-15T17:47:14;43.10;;;21.90;;
25721;SDS011;13578;53.450;15.496;2023-02-15T17:50:21;51.85;;;22.27;;
25721;SDS011;13578;53.450;15.496;2023-02-15T17:53:23;44.17;;;19.65;;
25721;SDS011;13578;53.450;15.496;2023-02-15T17:56:25;47.80;;;21.67;;
25721;SDS011;13578;53.450;15.496;2023-02-15T17:59:25;50.00;;;22.48;;
25721;SDS011;13578;53.450;15.496;2023-02-15T18:02:27;50.70;;;20.90;;
25721;SDS011;13578;53.450;15.496;2023-02-15T18:05:52;47.60;;;22.75;;
25721;SDS011;13578;53.450;15.496;2023-02-15T18:09:13;50.22;;;23.13;;
25721;SDS011;13578;53.450;15.496;2023-02-15T18:12:33;52.20;;;23.50;;
25721;SDS011;13578;53.450;15.496;2023-02-15T18:15:38;50.08;;;21.55;;
25721;SDS011;13578;53.450;15.496;2023-02-15T18:18:38;39.95;;;19.98;;
25721;SDS011;13578;53.450;15.496;2023-02-15T18:21:39;48.33;;;23.45;;
25721;SDS011;13578;53.450;15.496;2023-02-15T18:24:40;50.17;;;22.50;;
25721;SDS011;13578;53.450;15.496;2023-02-15T18:27:41;47.47;;;21.30;;
25721;SDS011;13578;53.450;15.496;2023-02-15T18:30:42;63.35;;;24.75;;
25721;SDS011;13578;53.450;15.496;2023-02-15T18:33:43;49.53;;;22.80;;
25721;SDS011;13578;53.450;15.496;2023-02-15T18:36:47;49.47;;;22.95;;
25721;SDS011;13578;53.450;15.496;2023-02-15T18:39:48;60.30;;;25.90;;
25721;SDS011;13578;53.450;15.496;2023-02-15T18:42:53;62.43;;;25.70;;
25721;SDS011;13578;53.450;15.496;2023-02-15T18:45:55;58.45;;;25.73;;
25721;SDS011;13578;53.450;15.496;2023-02-15T18:48:56;57.72;;;24.95;;
25721;SDS011;13578;53.450;15.496;2023-02-15T18:51:57;65.97;;;26.17;;
25721;SDS011;13578;53.450;15.496;2023-02-15T18:54:58;65.43;;;28.83;;
25721;SDS011;13578;53.450;15.496;2023-02-15T18:58:01;67.57;;;27.08;;
25721;SDS011;13578;53.450;15.496;2023-02-15T19:01:02;60.65;;;26.80;;
25721;SDS011;13578;53.450;15.496;2023-02-15T19:04:03;65.90;;;28.67;;
25721;SDS011;13578;53.450;15.496;2023-02-15T19:07:04;55.60;;;26.30;;
25721;SDS011;13578;53.450;15.496;2023-02-15T19:10:06;59.83;;;26.08;;
25721;SDS011;13578;53.450;15.496;2023-02-15T19:13:12;53.00;;;24.58;;
25721;SDS011;13578;53.450;15.496;2023-02-15T19:16:32;56.38;;;25.55;;
25721;SDS011;13578;53.450;15.496;2023-02-15T19:19:34;61.60;;;26.52;;
25721;SDS011;13578;53.450;15.496;2023-02-15T19:22:35;54.97;;;25.85;;
25721;SDS011;13578;53.450;15.496;2023-02-15T19:25:35;56.35;;;27.00;;
25721;SDS011;13578;53.450;15.496;2023-02-15T19:28:39;60.00;;;27.75;;
25721;SDS011;13578;53.450;15.496;2023-02-15T19:31:39;54.95;;;25.40;;
25721;SDS011;13578;53.450;15.496;2023-02-15T19:34:40;49.20;;;24.00;;
25721;SDS011;13578;53.450;15.496;2023-02-15T19:37:42;57.40;;;27.45;;
25721;SDS011;13578;53.450;15.496;2023-02-15T19:40:46;53.58;;;25.08;;
25721;SDS011;13578;53.450;15.496;2023-02-15T19:43:49;62.28;;;27.45;;
25721;SDS011;13578;53.450;15.496;2023-02-15T19:46:54;69.70;;;30.33;;
25721;SDS011;13578;53.450;15.496;2023-02-15T19:49:55;58.63;;;27.13;;
25721;SDS011;13578;53.450;15.496;2023-02-15T19:53:00;64.00;;;28.48;;
25721;SDS011;13578;53.450;15.496;2023-02-15T19:56:02;71.15;;;27.13;;
25721;SDS011;13578;53.450;15.496;2023-02-15T19:59:02;59.65;;;26.75;;
25721;SDS011;13578;53.450;15.496;2023-02-15T20:02:03;66.50;;;28.08;;
25721;SDS011;13578;53.450;15.496;2023-02-15T20:05:04;68.60;;;28.90;;
25721;SDS011;13578;53.450;15.496;2023-02-15T20:08:05;63.83;;;26.83;;
25721;SDS011;13578;53.450;15.496;2023-02-15T20:11:09;62.95;;;28.38;;
25721;SDS011;13578;53.450;15.496;2023-02-15T20:14:14;70.85;;;30.00;;
25721;SDS011;13578;53.450;15.496;2023-02-15T20:17:14;62.50;;;29.08;;
25721;SDS011;13578;53.450;15.496;2023-02-15T20:20:15;70.47;;;29.80;;
25721;SDS011;13578;53.450;15.496;2023-02-15T20:23:33;72.70;;;29.38;;
25721;SDS011;13578;53.450;15.496;2023-02-15T20:26:35;76.82;;;31.05;;
25721;SDS011;13578;53.450;15.496;2023-02-15T20:29:36;69.60;;;30.08;;
25721;SDS011;13578;53.450;15.496;2023-02-15T20:32:37;69.78;;;30.88;;